createdAt,value
2018-06-30T00:00:20.020Z,0.00
2018-06-30T00:01:20.017Z,0.00
2018-06-30T00:02:20.020Z,0.00
2018-06-30T00:03:20.021Z,0.00
2018-06-30T00:04:41.030Z,0.00
2018-06-30T00:05:20.019Z,0.00
2018-06-30T00:06:20.025Z,0.00
2018-06-30T00:07:20.028Z,0.00
2018-06-30T00:08:20.029Z,0.00
2018-06-30T00:09:20.027Z,0.00
2018-06-30T00:10:41.047Z,0.00
2018-06-30T00:11:20.033Z,0.00
2018-06-30T00:12:20.039Z,0.00
2018-06-30T00:13:20.037Z,0.00
2018-06-30T00:14:20.035Z,0.00
2018-06-30T00:15:20.040Z,0.00
2018-06-30T00:16:41.053Z,0.00
2018-06-30T00:17:20.047Z,0.00
2018-06-30T00:18:20.042Z,0.00
2018-06-30T00:19:20.044Z,0.00
2018-06-30T00:20:20.051Z,0.00
2018-06-30T00:21:20.052Z,0.00
2018-06-30T00:22:41.066Z,0.00
2018-06-30T00:23:20.057Z,0.00
2018-06-30T00:24:20.055Z,0.00
2018-06-30T00:25:20.059Z,0.00
2018-06-30T00:26:20.060Z,0.00
2018-06-30T00:27:20.060Z,0.00
2018-06-30T00:28:41.072Z,0.00
2018-06-30T00:29:20.068Z,0.00
2018-06-30T00:30:20.070Z,0.00
2018-06-30T00:31:20.069Z,0.00
2018-06-30T00:32:20.074Z,0.00
2018-06-30T00:33:20.071Z,0.00
2018-06-30T00:34:41.081Z,0.00
2018-06-30T00:35:20.077Z,0.00
2018-06-30T00:36:20.077Z,0.00
2018-06-30T00:37:20.076Z,0.00
2018-06-30T00:38:20.124Z,0.00
2018-06-30T00:39:20.081Z,0.00
2018-06-30T00:40:41.093Z,0.00
2018-06-30T00:41:20.083Z,0.00
2018-06-30T00:42:20.090Z,0.00
2018-06-30T00:43:20.087Z,0.00
2018-06-30T00:44:20.091Z,0.00
2018-06-30T00:45:20.090Z,0.00
2018-06-30T00:46:41.102Z,0.00
2018-06-30T00:47:20.099Z,0.00
2018-06-30T00:48:20.097Z,0.00
2018-06-30T00:49:20.100Z,0.00
2018-06-30T00:50:20.099Z,0.00
2018-06-30T00:51:20.106Z,0.00
2018-06-30T00:52:41.111Z,0.00
2018-06-30T00:53:20.101Z,0.00
2018-06-30T00:54:20.104Z,0.00
2018-06-30T00:55:20.109Z,0.00
2018-06-30T00:56:20.115Z,0.00
2018-06-30T00:57:20.109Z,0.00
2018-06-30T00:58:41.120Z,0.00
2018-06-30T00:59:20.117Z,0.00
2018-06-30T01:00:20.115Z,0.00
2018-06-30T01:01:20.113Z,0.00
2018-06-30T01:02:20.116Z,0.00
2018-06-30T01:03:20.120Z,0.00
2018-06-30T01:04:41.128Z,0.00
2018-06-30T01:05:20.119Z,0.00
2018-06-30T01:06:20.126Z,0.00
2018-06-30T01:07:20.122Z,0.00
2018-06-30T01:08:20.124Z,0.00
2018-06-30T01:09:20.126Z,0.00
2018-06-30T01:10:41.132Z,0.00
2018-06-30T01:11:20.128Z,0.00
2018-06-30T01:12:20.134Z,0.00
2018-06-30T01:13:20.135Z,0.00
2018-06-30T01:14:20.132Z,0.00
2018-06-30T01:15:20.137Z,0.00
2018-06-30T01:16:41.145Z,0.00
2018-06-30T01:17:20.137Z,0.00
2018-06-30T01:18:20.139Z,0.00
2018-06-30T01:19:20.149Z,0.00
2018-06-30T01:20:20.138Z,0.00
2018-06-30T01:21:20.140Z,0.00
2018-06-30T01:22:41.153Z,0.00
2018-06-30T01:23:20.143Z,0.00
2018-06-30T01:24:20.145Z,0.00
2018-06-30T01:25:20.146Z,0.00
2018-06-30T01:26:20.148Z,0.00
2018-06-30T01:27:20.151Z,0.00
2018-06-30T01:28:41.159Z,0.00
2018-06-30T01:29:20.152Z,0.00
2018-06-30T01:30:20.154Z,0.00
2018-06-30T01:31:20.153Z,0.00
2018-06-30T01:32:20.155Z,0.00
2018-06-30T01:33:20.156Z,0.00
2018-06-30T01:34:41.167Z,0.00
2018-06-30T01:35:20.154Z,0.00
2018-06-30T01:36:20.159Z,0.00
2018-06-30T01:37:20.159Z,0.00
2018-06-30T01:38:20.165Z,0.00
2018-06-30T01:39:20.164Z,0.00
2018-06-30T01:40:41.169Z,0.00
2018-06-30T01:41:20.164Z,0.00
2018-06-30T01:42:20.167Z,0.00
2018-06-30T01:43:20.167Z,0.00
2018-06-30T01:44:20.170Z,0.00
2018-06-30T01:45:20.169Z,0.00
2018-06-30T01:46:41.181Z,0.00
2018-06-30T01:47:20.178Z,0.00
2018-06-30T01:48:20.174Z,0.00
2018-06-30T01:49:20.176Z,0.00
2018-06-30T01:50:20.172Z,0.00
2018-06-30T01:51:20.176Z,0.00
2018-06-30T01:52:41.197Z,0.00
2018-06-30T01:53:20.178Z,0.00
2018-06-30T01:54:20.183Z,0.00
2018-06-30T01:55:20.181Z,0.00
2018-06-30T01:56:20.181Z,0.00
2018-06-30T01:57:20.183Z,0.00
2018-06-30T01:58:41.203Z,0.00
2018-06-30T01:59:20.185Z,0.00
2018-06-30T02:00:20.187Z,0.00
2018-06-30T02:01:20.190Z,0.00
2018-06-30T02:02:20.189Z,0.00
2018-06-30T02:03:20.191Z,0.00
2018-06-30T02:04:41.202Z,0.00
2018-06-30T02:05:20.192Z,0.00
2018-06-30T02:06:20.192Z,0.00
2018-06-30T02:07:20.196Z,0.00
2018-06-30T02:08:20.196Z,0.00
2018-06-30T02:09:20.195Z,0.00
2018-06-30T02:10:41.216Z,0.00
2018-06-30T02:11:20.200Z,0.00
2018-06-30T02:12:20.203Z,0.00
2018-06-30T02:13:20.201Z,0.00
2018-06-30T02:14:20.202Z,0.00
2018-06-30T02:15:20.208Z,0.00
2018-06-30T02:16:41.214Z,0.00
2018-06-30T02:17:20.205Z,0.00
2018-06-30T02:18:20.205Z,0.00
2018-06-30T02:19:20.205Z,0.00
2018-06-30T02:20:20.209Z,0.00
2018-06-30T02:21:20.206Z,0.00
2018-06-30T02:22:41.222Z,0.00
2018-06-30T02:23:20.210Z,0.00
2018-06-30T02:24:20.214Z,0.00
2018-06-30T02:25:20.214Z,0.00
2018-06-30T02:26:20.212Z,0.00
2018-06-30T02:27:20.212Z,0.00
2018-06-30T02:28:41.225Z,0.00
2018-06-30T02:29:20.217Z,0.00
2018-06-30T02:30:20.220Z,0.00
2018-06-30T02:31:20.217Z,0.00
2018-06-30T02:32:20.217Z,0.00
2018-06-30T02:33:20.224Z,0.00
2018-06-30T02:34:41.231Z,0.00
2018-06-30T02:35:20.226Z,0.00
2018-06-30T02:36:20.226Z,0.00
2018-06-30T02:37:20.224Z,0.00
2018-06-30T02:38:20.222Z,0.00
2018-06-30T02:39:20.228Z,0.00
2018-06-30T02:40:41.243Z,0.00
2018-06-30T02:41:20.232Z,0.00
2018-06-30T02:42:20.233Z,0.00
2018-06-30T02:43:20.226Z,0.00
2018-06-30T02:44:20.234Z,0.00
2018-06-30T02:45:20.233Z,0.00
2018-06-30T02:46:41.244Z,0.00
2018-06-30T02:47:20.235Z,0.00
2018-06-30T02:48:20.233Z,0.00
2018-06-30T02:49:20.231Z,0.00
2018-06-30T02:50:20.238Z,0.00
2018-06-30T02:51:20.243Z,0.00
2018-06-30T02:52:41.259Z,0.00
2018-06-30T02:53:20.236Z,0.00
2018-06-30T02:54:20.242Z,0.00
2018-06-30T02:55:20.243Z,0.00
2018-06-30T02:56:20.246Z,0.00
2018-06-30T02:57:20.243Z,0.00
2018-06-30T02:58:41.253Z,0.00
2018-06-30T02:59:20.247Z,0.00
2018-06-30T03:00:20.252Z,0.00
2018-06-30T03:01:20.251Z,0.00
2018-06-30T03:02:20.244Z,0.00
2018-06-30T03:03:20.246Z,0.00
2018-06-30T03:04:41.258Z,0.00
2018-06-30T03:05:20.247Z,0.00
2018-06-30T03:06:20.249Z,0.00
2018-06-30T03:07:20.249Z,0.00
2018-06-30T03:08:20.248Z,0.00
2018-06-30T03:09:20.256Z,0.00
2018-06-30T03:10:41.263Z,0.00
2018-06-30T03:11:20.257Z,0.00
2018-06-30T03:12:20.249Z,0.00
2018-06-30T03:13:20.255Z,0.00
2018-06-30T03:14:20.256Z,5.63
2018-06-30T03:15:20.256Z,5.63
2018-06-30T03:16:41.269Z,5.63
2018-06-30T03:17:20.258Z,5.63
2018-06-30T03:18:20.258Z,5.63
2018-06-30T03:19:20.256Z,5.63
2018-06-30T03:20:20.264Z,5.63
2018-06-30T03:21:20.261Z,5.63
2018-06-30T03:22:41.268Z,5.63
2018-06-30T03:23:20.264Z,5.63
2018-06-30T03:24:20.264Z,11.25
2018-06-30T03:25:20.261Z,11.25
2018-06-30T03:26:20.265Z,11.25
2018-06-30T03:27:20.264Z,11.25
2018-06-30T03:28:41.274Z,11.25
2018-06-30T03:29:20.264Z,11.25
2018-06-30T03:30:20.272Z,11.25
2018-06-30T03:31:20.274Z,16.88
2018-06-30T03:32:20.272Z,16.88
2018-06-30T03:33:20.270Z,16.88
2018-06-30T03:34:41.282Z,16.88
2018-06-30T03:35:20.267Z,16.88
2018-06-30T03:36:20.291Z,16.88
2018-06-30T03:37:20.269Z,22.50
2018-06-30T03:38:20.272Z,22.50
2018-06-30T03:39:20.272Z,22.50
2018-06-30T03:40:41.289Z,22.50
2018-06-30T03:41:20.273Z,22.50
2018-06-30T03:42:20.278Z,28.13
2018-06-30T03:43:20.276Z,28.13
2018-06-30T03:44:20.277Z,28.13
2018-06-30T03:45:20.275Z,28.13
2018-06-30T03:46:41.286Z,28.13
2018-06-30T03:47:20.281Z,33.75
2018-06-30T03:48:20.274Z,33.75
2018-06-30T03:49:20.277Z,33.75
2018-06-30T03:50:20.277Z,33.75
2018-06-30T03:51:20.277Z,33.75
2018-06-30T03:52:41.287Z,33.75
2018-06-30T03:53:20.284Z,39.38
2018-06-30T03:54:20.283Z,39.38
2018-06-30T03:55:20.279Z,39.38
2018-06-30T03:56:20.282Z,39.38
2018-06-30T03:57:20.285Z,39.38
2018-06-30T03:58:41.291Z,45.00
2018-06-30T03:59:20.282Z,45.00
2018-06-30T04:00:20.284Z,45.00
2018-06-30T04:01:20.284Z,45.00
2018-06-30T04:02:20.282Z,45.00
2018-06-30T04:03:20.287Z,50.63
2018-06-30T04:04:41.292Z,50.63
2018-06-30T04:05:20.284Z,50.63
2018-06-30T04:06:20.284Z,50.63
2018-06-30T04:07:20.286Z,50.63
2018-06-30T04:08:20.286Z,56.25
2018-06-30T04:09:20.284Z,56.25
2018-06-30T04:10:41.299Z,56.25
2018-06-30T04:11:20.292Z,56.25
2018-06-30T04:12:20.296Z,56.25
2018-06-30T04:13:20.285Z,61.88
2018-06-30T04:14:20.291Z,61.88
2018-06-30T04:15:20.289Z,61.88
2018-06-30T04:16:41.301Z,61.88
2018-06-30T04:17:20.292Z,61.88
2018-06-30T04:18:20.293Z,67.50
2018-06-30T04:19:20.289Z,67.50
2018-06-30T04:20:20.293Z,67.50
2018-06-30T04:21:20.292Z,67.50
2018-06-30T04:22:41.303Z,67.50
2018-06-30T04:23:20.293Z,67.50
2018-06-30T04:24:20.292Z,73.13
2018-06-30T04:25:20.296Z,73.13
2018-06-30T04:26:20.294Z,73.13
2018-06-30T04:27:20.296Z,73.13
2018-06-30T04:28:41.309Z,73.13
2018-06-30T04:29:20.294Z,73.13
2018-06-30T04:30:20.295Z,78.75
2018-06-30T04:31:20.304Z,78.75
2018-06-30T04:32:20.297Z,78.75
2018-06-30T04:33:20.328Z,78.75
2018-06-30T04:34:41.308Z,78.75
2018-06-30T04:35:20.306Z,78.75
2018-06-30T04:36:20.303Z,84.38
2018-06-30T04:37:20.299Z,84.38
2018-06-30T04:38:20.298Z,84.38
2018-06-30T04:39:20.299Z,84.38
2018-06-30T04:40:41.307Z,84.38
2018-06-30T04:41:20.309Z,84.38
2018-06-30T04:42:20.304Z,84.38
2018-06-30T04:43:20.306Z,90.00
2018-06-30T04:44:20.302Z,90.00
2018-06-30T04:45:20.356Z,90.00
2018-06-30T04:46:41.314Z,90.00
2018-06-30T04:47:20.304Z,90.00
2018-06-30T04:48:20.302Z,90.00
2018-06-30T04:49:20.303Z,90.00
2018-06-30T04:50:20.306Z,95.63
2018-06-30T04:51:20.306Z,95.63
2018-06-30T04:52:41.314Z,95.63
2018-06-30T04:53:20.351Z,95.63
2018-06-30T04:54:20.310Z,95.63
2018-06-30T04:55:20.307Z,95.63
2018-06-30T04:56:20.309Z,95.63
2018-06-30T04:57:20.306Z,95.63
2018-06-30T04:58:41.317Z,101.25
2018-06-30T04:59:20.309Z,101.25
2018-06-30T05:00:20.307Z,101.25
2018-06-30T05:01:20.315Z,101.25
2018-06-30T05:02:20.310Z,101.25
2018-06-30T05:03:20.317Z,101.25
2018-06-30T05:04:41.319Z,101.25
2018-06-30T05:05:20.314Z,106.88
2018-06-30T05:06:20.314Z,106.88
2018-06-30T05:07:20.312Z,106.88
2018-06-30T05:08:20.314Z,106.88
2018-06-30T05:09:20.312Z,106.88
2018-06-30T05:10:41.321Z,106.88
2018-06-30T05:11:20.317Z,112.50
2018-06-30T05:12:20.317Z,112.50
2018-06-30T05:13:20.319Z,112.50
2018-06-30T05:14:20.318Z,112.50
2018-06-30T05:15:20.312Z,112.50
2018-06-30T05:16:41.323Z,112.50
2018-06-30T05:17:20.314Z,118.13
2018-06-30T05:18:20.317Z,118.13
2018-06-30T05:19:20.317Z,118.13
2018-06-30T05:20:20.315Z,118.13
2018-06-30T05:21:20.317Z,118.13
2018-06-30T05:22:41.326Z,123.75
2018-06-30T05:23:20.314Z,123.75
2018-06-30T05:24:20.316Z,123.75
2018-06-30T05:25:20.322Z,123.75
2018-06-30T05:26:20.320Z,123.75
2018-06-30T05:27:20.318Z,129.38
2018-06-30T05:28:41.328Z,129.38
2018-06-30T05:29:20.318Z,129.38
2018-06-30T05:30:20.319Z,129.38
2018-06-30T05:31:20.321Z,129.38
2018-06-30T05:32:20.319Z,129.38
2018-06-30T05:33:20.358Z,129.38
2018-06-30T05:34:41.328Z,129.38
2018-06-30T05:35:20.318Z,135.00
2018-06-30T05:36:20.322Z,135.00
2018-06-30T05:37:20.322Z,135.00
2018-06-30T05:38:20.323Z,135.00
2018-06-30T05:39:20.323Z,140.63
2018-06-30T05:40:41.334Z,140.63
2018-06-30T05:41:20.324Z,140.63
2018-06-30T05:42:20.328Z,140.63
2018-06-30T05:43:20.327Z,140.63
2018-06-30T05:44:20.328Z,140.63
2018-06-30T05:45:20.323Z,146.25
2018-06-30T05:46:41.337Z,146.25
2018-06-30T05:47:20.333Z,146.25
2018-06-30T05:48:20.333Z,146.25
2018-06-30T05:49:20.329Z,146.25
2018-06-30T05:50:20.333Z,146.25
2018-06-30T05:51:20.328Z,146.25
2018-06-30T05:52:41.342Z,146.25
2018-06-30T05:53:20.333Z,151.88
2018-06-30T05:54:20.334Z,151.88
2018-06-30T05:55:20.337Z,151.88
2018-06-30T05:56:20.334Z,151.88
2018-06-30T05:57:20.335Z,151.88
2018-06-30T05:58:41.345Z,151.88
2018-06-30T05:59:20.395Z,151.88
2018-06-30T06:00:20.341Z,151.88
2018-06-30T06:01:20.345Z,151.88
2018-06-30T06:02:20.342Z,151.88
2018-06-30T06:03:20.341Z,151.88
2018-06-30T06:04:41.352Z,151.88
2018-06-30T06:05:20.344Z,151.88
2018-06-30T06:06:20.342Z,151.88
2018-06-30T06:07:20.346Z,151.88
2018-06-30T06:08:20.348Z,151.88
2018-06-30T06:09:20.346Z,151.88
2018-06-30T06:10:41.361Z,157.50
2018-06-30T06:11:20.351Z,157.50
2018-06-30T06:12:20.350Z,157.50
2018-06-30T06:13:20.354Z,157.50
2018-06-30T06:14:20.350Z,157.50
2018-06-30T06:15:20.393Z,157.50
2018-06-30T06:16:41.362Z,157.50
2018-06-30T06:17:20.356Z,157.50
2018-06-30T06:18:20.357Z,157.50
2018-06-30T06:19:20.357Z,157.50
2018-06-30T06:20:20.356Z,157.50
2018-06-30T06:21:20.359Z,157.50
2018-06-30T06:22:41.369Z,157.50
2018-06-30T06:23:20.358Z,157.50
2018-06-30T06:24:21.035Z,157.50
2018-06-30T06:25:20.356Z,163.13
2018-06-30T06:26:20.358Z,163.13
2018-06-30T06:27:20.359Z,163.13
2018-06-30T06:28:41.378Z,163.13
2018-06-30T06:29:20.368Z,163.13
2018-06-30T06:30:20.361Z,163.13
2018-06-30T06:31:20.361Z,163.13
2018-06-30T06:32:20.372Z,163.13
2018-06-30T06:33:20.365Z,163.13
2018-06-30T06:34:41.374Z,163.13
2018-06-30T06:35:20.362Z,163.13
2018-06-30T06:36:20.364Z,163.13
2018-06-30T06:37:20.372Z,163.13
2018-06-30T06:38:20.373Z,163.13
2018-06-30T06:39:20.370Z,163.13
2018-06-30T06:40:41.379Z,163.13
2018-06-30T06:41:20.369Z,163.13
2018-06-30T06:42:20.373Z,163.13
2018-06-30T06:43:20.380Z,168.75
2018-06-30T06:44:20.375Z,168.75
2018-06-30T06:45:20.380Z,168.75
2018-06-30T06:46:41.384Z,168.75
2018-06-30T06:47:20.373Z,168.75
2018-06-30T06:48:20.375Z,168.75
2018-06-30T06:49:20.374Z,168.75
2018-06-30T06:50:20.378Z,168.75
2018-06-30T06:51:20.381Z,168.75
2018-06-30T06:52:41.393Z,168.75
2018-06-30T06:53:20.379Z,168.75
2018-06-30T06:54:20.381Z,168.75
2018-06-30T06:55:20.384Z,168.75
2018-06-30T06:56:20.454Z,168.75
2018-06-30T06:57:20.380Z,168.75
2018-06-30T06:58:41.390Z,168.75
2018-06-30T06:59:20.383Z,168.75
2018-06-30T07:00:20.388Z,168.75
2018-06-30T07:01:20.387Z,168.75
2018-06-30T07:02:20.381Z,168.75
2018-06-30T07:03:20.393Z,174.38
2018-06-30T07:04:41.398Z,174.38
2018-06-30T07:05:20.392Z,174.38
2018-06-30T07:06:20.388Z,174.38
2018-06-30T07:07:20.386Z,174.38
2018-06-30T07:08:20.390Z,174.38
2018-06-30T07:09:20.392Z,174.38
2018-06-30T07:10:41.402Z,174.38
2018-06-30T07:11:20.398Z,174.38
2018-06-30T07:12:20.396Z,174.38
2018-06-30T07:13:20.389Z,174.38
2018-06-30T07:14:20.392Z,174.38
2018-06-30T07:15:20.397Z,174.38
2018-06-30T07:16:41.400Z,174.38
2018-06-30T07:17:20.395Z,174.38
2018-06-30T07:18:20.398Z,174.38
2018-06-30T07:19:20.663Z,174.38
2018-06-30T07:20:20.400Z,174.38
2018-06-30T07:21:20.398Z,174.38
2018-06-30T07:22:41.405Z,174.38
2018-06-30T07:23:20.399Z,174.38
2018-06-30T07:24:20.405Z,174.38
2018-06-30T07:25:20.401Z,174.38
2018-06-30T07:26:20.404Z,174.38
2018-06-30T07:27:20.404Z,174.38
2018-06-30T07:28:41.414Z,174.38
2018-06-30T07:29:20.407Z,174.38
2018-06-30T07:30:20.406Z,174.38
2018-06-30T07:31:20.411Z,174.38
2018-06-30T07:32:20.408Z,174.38
2018-06-30T07:33:20.408Z,174.38
2018-06-30T07:34:41.419Z,180.00
2018-06-30T07:35:20.408Z,180.00
2018-06-30T07:36:20.405Z,180.00
2018-06-30T07:37:20.421Z,180.00
2018-06-30T07:38:20.411Z,180.00
2018-06-30T07:39:20.411Z,180.00
2018-06-30T07:40:41.422Z,180.00
2018-06-30T07:41:20.412Z,180.00
2018-06-30T07:42:20.417Z,180.00
2018-06-30T07:43:20.423Z,180.00
2018-06-30T07:44:20.417Z,180.00
2018-06-30T07:45:20.416Z,180.00
2018-06-30T07:46:41.426Z,180.00
2018-06-30T07:47:20.421Z,180.00
2018-06-30T07:48:20.418Z,180.00
2018-06-30T07:49:20.421Z,180.00
2018-06-30T07:50:20.434Z,185.63
2018-06-30T07:51:20.424Z,180.00
2018-06-30T07:52:41.437Z,180.00
2018-06-30T07:53:20.422Z,180.00
2018-06-30T07:54:20.430Z,180.00
2018-06-30T07:55:20.430Z,180.00
2018-06-30T07:56:20.430Z,180.00
2018-06-30T07:57:20.427Z,180.00
2018-06-30T07:58:41.441Z,180.00
2018-06-30T07:59:20.432Z,180.00
2018-06-30T08:00:20.436Z,180.00
2018-06-30T08:01:20.445Z,180.00
2018-06-30T08:02:20.435Z,180.00
2018-06-30T08:03:20.435Z,180.00
2018-06-30T08:04:41.450Z,180.00
2018-06-30T08:05:20.624Z,180.00
2018-06-30T08:06:20.445Z,180.00
2018-06-30T08:07:20.500Z,180.00
2018-06-30T08:08:20.445Z,180.00
2018-06-30T08:09:20.444Z,180.00
2018-06-30T08:10:41.454Z,180.00
2018-06-30T08:11:20.448Z,180.00
2018-06-30T08:12:20.448Z,174.38
2018-06-30T08:13:20.449Z,180.00
2018-06-30T08:14:20.452Z,180.00
2018-06-30T08:15:20.453Z,180.00
2018-06-30T08:16:41.469Z,180.00
2018-06-30T08:17:20.457Z,180.00
2018-06-30T08:18:20.456Z,180.00
2018-06-30T08:19:20.462Z,180.00
2018-06-30T08:20:20.462Z,180.00
2018-06-30T08:21:20.465Z,180.00
2018-06-30T08:22:41.476Z,180.00
2018-06-30T08:23:20.465Z,180.00
2018-06-30T08:24:20.468Z,180.00
2018-06-30T08:25:20.470Z,180.00
2018-06-30T08:26:20.479Z,185.63
2018-06-30T08:27:20.473Z,185.63
2018-06-30T08:28:41.481Z,185.63
2018-06-30T08:29:20.475Z,185.63
2018-06-30T08:30:20.476Z,185.63
2018-06-30T08:31:20.477Z,185.63
2018-06-30T08:32:20.477Z,185.63
2018-06-30T08:33:20.479Z,185.63
2018-06-30T08:34:41.494Z,185.63
2018-06-30T08:35:20.483Z,185.63
2018-06-30T08:36:20.495Z,185.63
2018-06-30T08:37:20.487Z,185.63
2018-06-30T08:38:20.485Z,185.63
2018-06-30T08:39:20.490Z,185.63
2018-06-30T08:40:41.503Z,185.63
2018-06-30T08:41:20.489Z,185.63
2018-06-30T08:42:20.493Z,185.63
2018-06-30T08:43:20.496Z,185.63
2018-06-30T08:44:20.495Z,185.63
2018-06-30T08:45:20.496Z,185.63
2018-06-30T08:46:41.512Z,191.25
2018-06-30T08:47:20.505Z,191.25
2018-06-30T08:48:20.502Z,191.25
2018-06-30T08:49:20.501Z,191.25
2018-06-30T08:50:20.510Z,191.25
2018-06-30T08:51:20.512Z,191.25
2018-06-30T08:52:41.517Z,191.25
2018-06-30T08:53:20.510Z,191.25
2018-06-30T08:54:20.510Z,191.25
2018-06-30T08:55:20.552Z,191.25
2018-06-30T08:56:20.514Z,191.25
2018-06-30T08:57:20.517Z,191.25
2018-06-30T08:58:41.527Z,191.25
2018-06-30T08:59:20.514Z,191.25
2018-06-30T09:00:20.517Z,191.25
2018-06-30T09:01:20.521Z,191.25
2018-06-30T09:02:20.521Z,191.25
2018-06-30T09:03:20.522Z,191.25
2018-06-30T09:04:41.535Z,191.25
2018-06-30T09:05:20.528Z,191.25
2018-06-30T09:06:20.587Z,191.25
2018-06-30T09:07:20.529Z,191.25
2018-06-30T09:08:20.535Z,191.25
2018-06-30T09:09:20.528Z,191.25
2018-06-30T09:10:41.556Z,196.88
2018-06-30T09:11:20.534Z,196.88
2018-06-30T09:12:20.637Z,196.88
2018-06-30T09:13:20.537Z,196.88
2018-06-30T09:14:20.537Z,196.88
2018-06-30T09:15:20.537Z,196.88
2018-06-30T09:16:41.550Z,196.88
2018-06-30T09:17:20.542Z,196.88
2018-06-30T09:18:20.546Z,196.88
2018-06-30T09:19:20.542Z,196.88
2018-06-30T09:20:20.586Z,196.88
2018-06-30T09:21:20.547Z,196.88
2018-06-30T09:22:41.561Z,202.50
2018-06-30T09:23:20.552Z,202.50
2018-06-30T09:24:20.554Z,202.50
2018-06-30T09:25:20.551Z,202.50
2018-06-30T09:26:20.555Z,202.50
2018-06-30T09:27:20.558Z,202.50
2018-06-30T09:28:41.572Z,202.50
2018-06-30T09:29:20.560Z,202.50
2018-06-30T09:30:20.565Z,202.50
2018-06-30T09:31:20.566Z,202.50
2018-06-30T09:32:20.571Z,202.50
2018-06-30T09:33:20.568Z,202.50
2018-06-30T09:34:41.582Z,202.50
2018-06-30T09:35:20.575Z,202.50
2018-06-30T09:36:20.575Z,202.50
2018-06-30T09:37:20.576Z,202.50
2018-06-30T09:38:20.577Z,208.13
2018-06-30T09:39:20.586Z,208.13
2018-06-30T09:40:41.591Z,208.13
2018-06-30T09:41:20.584Z,208.13
2018-06-30T09:42:20.588Z,208.13
2018-06-30T09:43:20.587Z,208.13
2018-06-30T09:44:20.638Z,208.13
2018-06-30T09:45:20.590Z,208.13
2018-06-30T09:46:41.604Z,208.13
2018-06-30T09:47:20.601Z,208.13
2018-06-30T09:48:20.600Z,208.13
2018-06-30T09:49:20.599Z,208.13
2018-06-30T09:50:20.599Z,208.13
2018-06-30T09:51:20.608Z,208.13
2018-06-30T09:52:41.620Z,208.13
2018-06-30T09:53:20.609Z,208.13
2018-06-30T09:54:20.611Z,208.13
2018-06-30T09:55:20.615Z,213.75
2018-06-30T09:56:20.612Z,213.75
2018-06-30T09:57:20.619Z,213.75
2018-06-30T09:58:41.630Z,213.75
2018-06-30T09:59:20.624Z,213.75
2018-06-30T10:00:20.621Z,213.75
2018-06-30T10:01:20.624Z,213.75
2018-06-30T10:02:20.626Z,213.75
2018-06-30T10:03:20.631Z,213.75
2018-06-30T10:04:41.645Z,213.75
2018-06-30T10:05:20.636Z,213.75
2018-06-30T10:06:20.636Z,219.38
2018-06-30T10:07:20.639Z,219.38
2018-06-30T10:08:20.641Z,219.38
2018-06-30T10:09:20.646Z,219.38
2018-06-30T10:10:41.658Z,219.38
2018-06-30T10:11:20.647Z,219.38
2018-06-30T10:12:20.652Z,219.38
2018-06-30T10:13:20.660Z,219.38
2018-06-30T10:14:20.655Z,225.00
2018-06-30T10:15:20.661Z,225.00
2018-06-30T10:16:41.671Z,225.00
2018-06-30T10:17:20.664Z,225.00
2018-06-30T10:18:20.670Z,230.63
2018-06-30T10:19:20.684Z,230.63
2018-06-30T10:20:20.672Z,230.63
2018-06-30T10:21:20.680Z,230.63
2018-06-30T10:22:41.688Z,230.63
2018-06-30T10:23:20.681Z,236.25
2018-06-30T10:24:20.682Z,241.88
2018-06-30T10:25:20.682Z,247.50
2018-06-30T10:26:20.684Z,253.13
2018-06-30T10:27:20.687Z,253.13
2018-06-30T10:28:41.704Z,253.13
2018-06-30T10:29:20.690Z,253.13
2018-06-30T10:30:20.692Z,253.13
2018-06-30T10:31:20.742Z,253.13
2018-06-30T10:32:20.717Z,258.75
2018-06-30T10:33:20.694Z,258.75
2018-06-30T10:34:41.707Z,270.00
2018-06-30T10:35:20.703Z,264.38
2018-06-30T10:36:20.704Z,275.63
2018-06-30T10:37:20.707Z,286.88
2018-06-30T10:38:20.703Z,292.50
2018-06-30T10:39:20.706Z,292.50
2018-06-30T10:40:41.716Z,298.13
2018-06-30T10:41:20.709Z,286.88
2018-06-30T10:42:20.784Z,281.25
2018-06-30T10:43:20.713Z,286.88
2018-06-30T10:44:20.722Z,292.50
2018-06-30T10:45:20.718Z,292.50
2018-06-30T10:46:41.729Z,292.50
2018-06-30T10:47:20.723Z,292.50
2018-06-30T10:48:20.727Z,292.50
2018-06-30T10:49:20.725Z,303.75
2018-06-30T10:50:20.727Z,309.38
2018-06-30T10:51:20.734Z,309.38
2018-06-30T10:52:41.745Z,309.38
2018-06-30T10:53:20.735Z,303.75
2018-06-30T10:54:20.738Z,303.75
2018-06-30T10:55:20.791Z,303.75
2018-06-30T10:56:20.742Z,303.75
2018-06-30T10:57:20.742Z,303.75
2018-06-30T10:58:41.753Z,303.75
2018-06-30T10:59:20.745Z,309.38
2018-06-30T11:00:20.760Z,309.38
2018-06-30T11:01:20.746Z,309.38
2018-06-30T11:02:20.752Z,309.38
2018-06-30T11:03:20.756Z,309.38
2018-06-30T11:04:41.766Z,309.38
2018-06-30T11:05:20.845Z,309.38
2018-06-30T11:06:20.763Z,309.38
2018-06-30T11:07:20.761Z,315.00
2018-06-30T11:08:20.767Z,315.00
2018-06-30T11:09:20.770Z,320.63
2018-06-30T11:10:41.785Z,320.63
2018-06-30T11:11:20.774Z,320.63
2018-06-30T11:12:20.775Z,320.63
2018-06-30T11:13:20.778Z,326.25
2018-06-30T11:14:20.781Z,326.25
2018-06-30T11:15:20.789Z,331.88
2018-06-30T11:16:41.800Z,331.88
2018-06-30T11:17:20.789Z,337.50
2018-06-30T11:18:20.791Z,343.13
2018-06-30T11:19:20.796Z,343.13
2018-06-30T11:20:20.802Z,348.75
2018-06-30T11:21:20.801Z,360.00
2018-06-30T11:22:41.811Z,393.75
2018-06-30T11:23:20.808Z,489.38
2018-06-30T11:25:20.836Z,731.25
2018-06-30T11:26:20.829Z,798.75
2018-06-30T11:27:20.836Z,838.13
2018-06-30T11:28:41.849Z,888.75
2018-06-30T11:29:22.255Z,1085.63
2018-06-30T11:30:41.855Z,1839.38
2018-06-30T11:31:20.847Z,2486.25
2018-06-30T11:32:20.848Z,2548.13
2018-06-30T11:33:41.862Z,2593.13
2018-06-30T11:34:22.243Z,2694.38
2018-06-30T11:35:41.874Z,2728.13
2018-06-30T11:36:20.867Z,2716.88
2018-06-30T11:37:20.873Z,2728.13
2018-06-30T11:38:41.879Z,2795.63
2018-06-30T11:39:20.876Z,2818.13
2018-06-30T11:40:41.967Z,2750.63
2018-06-30T11:41:20.884Z,2677.50
2018-06-30T11:42:20.884Z,2655.00
2018-06-30T11:43:41.903Z,2683.13
2018-06-30T11:44:20.900Z,2716.88
2018-06-30T11:45:41.916Z,2671.88
2018-06-30T11:46:20.905Z,2688.75
2018-06-30T11:47:20.911Z,2716.88
2018-06-30T11:48:41.931Z,2694.38
2018-06-30T11:49:20.923Z,2671.88
2018-06-30T11:50:41.942Z,2660.63
2018-06-30T11:51:20.935Z,2683.13
2018-06-30T11:52:20.947Z,2705.63
2018-06-30T11:53:41.963Z,2649.38
2018-06-30T11:54:20.949Z,2553.75
2018-06-30T11:55:41.971Z,2587.50
2018-06-30T11:56:20.966Z,2621.25
2018-06-30T11:57:20.976Z,2632.50
2018-06-30T11:58:41.991Z,2655.00
2018-06-30T11:59:20.989Z,2688.75
2018-06-30T12:00:42.023Z,2638.13
2018-06-30T12:01:20.998Z,2604.38
2018-06-30T12:02:21.006Z,2705.63
2018-06-30T12:03:42.030Z,2716.88
2018-06-30T12:04:21.717Z,2655.00
2018-06-30T12:05:42.049Z,2683.13
2018-06-30T12:06:21.035Z,2683.13
2018-06-30T12:07:21.042Z,2610.00
2018-06-30T12:08:42.062Z,2452.50
2018-06-30T12:09:21.167Z,2154.38
2018-06-30T12:10:42.126Z,1794.38
2018-06-30T12:11:21.070Z,1479.38
2018-06-30T12:12:21.076Z,1293.75
2018-06-30T12:13:42.092Z,1175.63
2018-06-30T12:14:21.095Z,1108.13
2018-06-30T12:15:42.121Z,1012.50
2018-06-30T12:16:21.107Z,731.25
2018-06-30T12:17:21.118Z,1006.88
2018-06-30T12:18:42.199Z,967.50
2018-06-30T12:19:21.128Z,967.50
2018-06-30T12:20:42.146Z,967.50
2018-06-30T12:21:21.137Z,950.63
2018-06-30T12:22:21.147Z,939.38
2018-06-30T12:23:42.163Z,928.13
2018-06-30T12:24:21.159Z,922.50
2018-06-30T12:25:42.180Z,916.88
2018-06-30T12:26:21.178Z,905.63
2018-06-30T12:27:21.182Z,905.63
2018-06-30T12:28:42.195Z,900.00
2018-06-30T12:29:21.192Z,888.75
2018-06-30T12:30:42.211Z,883.13
2018-06-30T12:31:21.208Z,888.75
2018-06-30T12:32:21.274Z,894.38
2018-06-30T12:33:42.235Z,883.13
2018-06-30T12:34:21.224Z,883.13
2018-06-30T12:35:42.238Z,883.13
2018-06-30T12:36:21.236Z,883.13
2018-06-30T12:37:21.245Z,888.75
2018-06-30T12:38:42.251Z,888.75
2018-06-30T12:39:21.264Z,894.38
2018-06-30T12:40:42.266Z,877.50
2018-06-30T12:41:21.263Z,871.88
2018-06-30T12:42:21.269Z,877.50
2018-06-30T12:43:42.288Z,883.13